sensor_id;sensor_type;location;lat;lon;timestamp;P1;durP1;ratioP1;P2;durP2;ratioP2
63008;SDS011;49099;28.428;-16.488;2023-07-22T00:01:11;14.77;;;2.88;;
63008;SDS011;49099;28.428;-16.488;2023-07-22T00:03:38;13.60;;;3.13;;
63008;SDS011;49099;28.428;-16.488;2023-07-22T00:06:06;16.05;;;3.13;;
63008;SDS011;49099;28.428;-16.488;2023-07-22T00:08:35;12.82;;;3.10;;
63008;SDS011;49099;28.428;-16.488;2023-07-22T00:11:04;11.63;;;3.78;;
63008;SDS011;49099;28.428;-16.488;2023-07-22T00:13:31;17.45;;;3.78;;
63008;SDS011;49099;28.428;-16.488;2023-07-22T00:15:59;15.23;;;3.72;;
63008;SDS011;49099;28.428;-16.488;2023-07-22T00:18:27;11.10;;;3.42;;
63008;SDS011;49099;28.428;-16.488;2023-07-22T00:20:54;12.38;;;3.08;;
63008;SDS011;49099;28.428;-16.488;2023-07-22T00:23:22;12.43;;;3.63;;
63008;SDS011;49099;28.428;-16.488;2023-07-22T00:25:49;8.88;;;3.15;;
63008;SDS011;49099;28.428;-16.488;2023-07-22T00:28:17;13.25;;;3.80;;
63008;SDS011;49099;28.428;-16.488;2023-07-22T00:30:45;13.75;;;4.10;;
63008;SDS011;49099;28.428;-16.488;2023-07-22T00:33:12;12.20;;;4.18;;
63008;SDS011;49099;28.428;-16.488;2023-07-22T00:35:40;11.07;;;4.45;;
63008;SDS011;49099;28.428;-16.488;2023-07-22T00:38:07;11.70;;;4.78;;
63008;SDS011;49099;28.428;-16.488;2023-07-22T00:40:36;7.95;;;4.03;;
63008;SDS011;49099;28.428;-16.488;2023-07-22T00:43:04;12.13;;;4.63;;
63008;SDS011;49099;28.428;-16.488;2023-07-22T00:45:33;10.55;;;4.43;;
63008;SDS011;49099;28.428;-16.488;2023-07-22T00:48:01;17.15;;;5.38;;
63008;SDS011;49099;28.428;-16.488;2023-07-22T00:50:29;13.32;;;4.80;;
63008;SDS011;49099;28.428;-16.488;2023-07-22T00:52:57;12.20;;;4.57;;
63008;SDS011;49099;28.428;-16.488;2023-07-22T00:55:24;10.05;;;4.28;;
63008;SDS011;49099;28.428;-16.488;2023-07-22T00:57:54;14.35;;;4.00;;
63008;SDS011;49099;28.428;-16.488;2023-07-22T01:00:21;12.63;;;3.22;;
63008;SDS011;49099;28.428;-16.488;2023-07-22T01:02:48;10.77;;;3.28;;
63008;SDS011;49099;28.428;-16.488;2023-07-22T01:05:16;14.70;;;3.05;;
63008;SDS011;49099;28.428;-16.488;2023-07-22T01:07:44;12.27;;;3.25;;
63008;SDS011;49099;28.428;-16.488;2023-07-22T01:10:12;14.02;;;3.10;;
63008;SDS011;49099;28.428;-16.488;2023-07-22T01:12:43;9.05;;;3.05;;
63008;SDS011;49099;28.428;-16.488;2023-07-22T01:15:11;14.02;;;3.25;;
63008;SDS011;49099;28.428;-16.488;2023-07-22T01:17:40;11.35;;;3.17;;
63008;SDS011;49099;28.428;-16.488;2023-07-22T01:20:08;13.57;;;3.55;;
63008;SDS011;49099;28.428;-16.488;2023-07-22T01:22:37;18.33;;;4.00;;
63008;SDS011;49099;28.428;-16.488;2023-07-22T01:25:06;16.33;;;3.13;;
63008;SDS011;49099;28.428;-16.488;2023-07-22T01:27:34;12.02;;;2.80;;
63008;SDS011;49099;28.428;-16.488;2023-07-22T01:30:01;10.18;;;2.88;;
63008;SDS011;49099;28.428;-16.488;2023-07-22T01:32:30;12.05;;;3.10;;
63008;SDS011;49099;28.428;-16.488;2023-07-22T01:34:58;13.43;;;2.80;;
63008;SDS011;49099;28.428;-16.488;2023-07-22T01:37:25;17.58;;;2.83;;
63008;SDS011;49099;28.428;-16.488;2023-07-22T01:39:52;9.00;;;2.60;;
63008;SDS011;49099;28.428;-16.488;2023-07-22T01:42:22;14.73;;;2.97;;
63008;SDS011;49099;28.428;-16.488;2023-07-22T01:44:49;13.20;;;2.97;;
63008;SDS011;49099;28.428;-16.488;2023-07-22T01:47:17;12.18;;;3.03;;
63008;SDS011;49099;28.428;-16.488;2023-07-22T01:49:44;12.45;;;3.13;;
63008;SDS011;49099;28.428;-16.488;2023-07-22T01:52:11;8.38;;;2.70;;
63008;SDS011;49099;28.428;-16.488;2023-07-22T01:54:39;8.60;;;3.05;;
63008;SDS011;49099;28.428;-16.488;2023-07-22T01:57:06;8.93;;;3.55;;
63008;SDS011;49099;28.428;-16.488;2023-07-22T01:59:33;7.68;;;2.80;;
63008;SDS011;49099;28.428;-16.488;2023-07-22T02:02:00;7.47;;;2.75;;
63008;SDS011;49099;28.428;-16.488;2023-07-22T02:04:30;7.40;;;2.92;;
63008;SDS011;49099;28.428;-16.488;2023-07-22T02:06:58;7.40;;;3.17;;
63008;SDS011;49099;28.428;-16.488;2023-07-22T02:09:25;8.88;;;3.13;;
63008;SDS011;49099;28.428;-16.488;2023-07-22T02:11:52;9.48;;;2.50;;
63008;SDS011;49099;28.428;-16.488;2023-07-22T02:14:20;10.23;;;2.88;;
63008;SDS011;49099;28.428;-16.488;2023-07-22T02:16:47;9.48;;;2.60;;
63008;SDS011;49099;28.428;-16.488;2023-07-22T02:19:14;12.95;;;2.67;;
63008;SDS011;49099;28.428;-16.488;2023-07-22T02:21:42;10.90;;;2.60;;
63008;SDS011;49099;28.428;-16.488;2023-07-22T02:24:10;9.30;;;2.22;;
63008;SDS011;49099;28.428;-16.488;2023-07-22T02:26:37;6.13;;;2.30;;
63008;SDS011;49099;28.428;-16.488;2023-07-22T02:29:04;8.13;;;2.25;;
63008;SDS011;49099;28.428;-16.488;2023-07-22T02:31:31;9.73;;;2.65;;
63008;SDS011;49099;28.428;-16.488;2023-07-22T02:33:59;9.27;;;2.33;;
63008;SDS011;49099;28.428;-16.488;2023-07-22T02:36:27;6.15;;;2.60;;
63008;SDS011;49099;28.428;-16.488;2023-07-22T02:38:55;8.45;;;2.60;;
63008;SDS011;49099;28.428;-16.488;2023-07-22T02:41:22;9.02;;;2.30;;
63008;SDS011;49099;28.428;-16.488;2023-07-22T02:43:49;9.57;;;2.03;;
63008;SDS011;49099;28.428;-16.488;2023-07-22T02:46:16;6.05;;;2.35;;
63008;SDS011;49099;28.428;-16.488;2023-07-22T02:48:44;6.45;;;2.47;;
63008;SDS011;49099;28.428;-16.488;2023-07-22T02:51:11;5.13;;;2.20;;
63008;SDS011;49099;28.428;-16.488;2023-07-22T02:53:39;7.53;;;2.10;;
63008;SDS011;49099;28.428;-16.488;2023-07-22T02:56:07;9.48;;;2.30;;
63008;SDS011;49099;28.428;-16.488;2023-07-22T02:58:35;6.38;;;1.80;;
63008;SDS011;49099;28.428;-16.488;2023-07-22T03:01:05;8.38;;;2.10;;
63008;SDS011;49099;28.428;-16.488;2023-07-22T03:03:35;6.97;;;2.00;;
63008;SDS011;49099;28.428;-16.488;2023-07-22T03:06:03;4.82;;;2.20;;
63008;SDS011;49099;28.428;-16.488;2023-07-22T03:08:31;6.53;;;2.20;;
63008;SDS011;49099;28.428;-16.488;2023-07-22T03:10:58;9.30;;;2.58;;
63008;SDS011;49099;28.428;-16.488;2023-07-22T03:13:25;14.45;;;2.85;;
63008;SDS011;49099;28.428;-16.488;2023-07-22T03:15:56;13.10;;;2.80;;
63008;SDS011;49099;28.428;-16.488;2023-07-22T03:18:24;14.60;;;3.00;;
63008;SDS011;49099;28.428;-16.488;2023-07-22T03:20:52;11.90;;;3.00;;
63008;SDS011;49099;28.428;-16.488;2023-07-22T03:23:19;10.68;;;2.78;;
63008;SDS011;49099;28.428;-16.488;2023-07-22T03:25:47;11.63;;;2.90;;
63008;SDS011;49099;28.428;-16.488;2023-07-22T03:28:14;16.25;;;2.97;;
63008;SDS011;49099;28.428;-16.488;2023-07-22T03:30:41;11.02;;;2.60;;
63008;SDS011;49099;28.428;-16.488;2023-07-22T03:33:09;14.55;;;2.90;;
63008;SDS011;49099;28.428;-16.488;2023-07-22T03:35:37;11.40;;;2.83;;
63008;SDS011;49099;28.428;-16.488;2023-07-22T03:38:05;9.15;;;2.67;;
63008;SDS011;49099;28.428;-16.488;2023-07-22T03:40:32;12.70;;;2.97;;
63008;SDS011;49099;28.428;-16.488;2023-07-22T03:43:00;10.35;;;2.70;;
63008;SDS011;49099;28.428;-16.488;2023-07-22T03:45:28;12.48;;;2.78;;
63008;SDS011;49099;28.428;-16.488;2023-07-22T03:47:58;10.00;;;3.10;;
63008;SDS011;49099;28.428;-16.488;2023-07-22T03:50:27;14.40;;;2.90;;
63008;SDS011;49099;28.428;-16.488;2023-07-22T03:52:55;13.25;;;2.90;;
63008;SDS011;49099;28.428;-16.488;2023-07-22T03:55:22;18.58;;;2.97;;
63008;SDS011;49099;28.428;-16.488;2023-07-22T03:57:50;14.52;;;3.00;;
63008;SDS011;49099;28.428;-16.488;2023-07-22T04:00:17;14.30;;;3.10;;
63008;SDS011;49099;28.428;-16.488;2023-07-22T04:02:44;11.32;;;2.85;;
63008;SDS011;49099;28.428;-16.488;2023-07-22T04:05:12;11.38;;;2.42;;
63008;SDS011;49099;28.428;-16.488;2023-07-22T04:07:39;7.70;;;2.40;;
63008;SDS011;49099;28.428;-16.488;2023-07-22T04:10:07;12.35;;;2.80;;
63008;SDS011;49099;28.428;-16.488;2023-07-22T04:12:34;8.48;;;2.15;;
63008;SDS011;49099;28.428;-16.488;2023-07-22T04:15:01;10.70;;;2.47;;
63008;SDS011;49099;28.428;-16.488;2023-07-22T04:17:29;8.85;;;2.60;;
63008;SDS011;49099;28.428;-16.488;2023-07-22T04:19:57;6.82;;;2.28;;
63008;SDS011;49099;28.428;-16.488;2023-07-22T04:22:24;8.15;;;2.42;;
63008;SDS011;49099;28.428;-16.488;2023-07-22T04:24:51;7.47;;;2.45;;
63008;SDS011;49099;28.428;-16.488;2023-07-22T04:27:18;7.85;;;2.50;;
63008;SDS011;49099;28.428;-16.488;2023-07-22T04:29:46;9.68;;;2.85;;
63008;SDS011;49099;28.428;-16.488;2023-07-22T04:32:13;10.60;;;2.50;;
63008;SDS011;49099;28.428;-16.488;2023-07-22T04:34:41;9.63;;;2.60;;
63008;SDS011;49099;28.428;-16.488;2023-07-22T04:37:08;7.85;;;2.58;;
63008;SDS011;49099;28.428;-16.488;2023-07-22T04:39:36;7.57;;;2.50;;
63008;SDS011;49099;28.428;-16.488;2023-07-22T04:42:04;16.13;;;2.80;;
63008;SDS011;49099;28.428;-16.488;2023-07-22T04:44:31;9.00;;;2.60;;
63008;SDS011;49099;28.428;-16.488;2023-07-22T04:46:58;10.50;;;2.40;;
63008;SDS011;49099;28.428;-16.488;2023-07-22T04:49:26;10.02;;;3.35;;
63008;SDS011;49099;28.428;-16.488;2023-07-22T04:51:53;13.02;;;2.55;;
63008;SDS011;49099;28.428;-16.488;2023-07-22T04:54:21;12.18;;;3.08;;
63008;SDS011;49099;28.428;-16.488;2023-07-22T04:56:48;11.27;;;3.10;;
63008;SDS011;49099;28.428;-16.488;2023-07-22T04:59:15;11.40;;;2.63;;
63008;SDS011;49099;28.428;-16.488;2023-07-22T05:01:43;19.90;;;3.30;;
63008;SDS011;49099;28.428;-16.488;2023-07-22T05:04:10;10.95;;;2.42;;
63008;SDS011;49099;28.428;-16.488;2023-07-22T05:06:37;11.15;;;2.40;;
63008;SDS011;49099;28.428;-16.488;2023-07-22T05:09:04;9.77;;;2.38;;
63008;SDS011;49099;28.428;-16.488;2023-07-22T05:11:32;10.52;;;2.25;;
63008;SDS011;49099;28.428;-16.488;2023-07-22T05:13:59;12.38;;;2.60;;
63008;SDS011;49099;28.428;-16.488;2023-07-22T05:16:26;7.95;;;2.30;;
63008;SDS011;49099;28.428;-16.488;2023-07-22T05:18:54;7.25;;;2.25;;
63008;SDS011;49099;28.428;-16.488;2023-07-22T05:21:21;8.38;;;2.05;;
63008;SDS011;49099;28.428;-16.488;2023-07-22T05:23:49;6.13;;;2.08;;
63008;SDS011;49099;28.428;-16.488;2023-07-22T05:26:16;8.20;;;1.90;;
63008;SDS011;49099;28.428;-16.488;2023-07-22T05:28:43;7.28;;;2.20;;
63008;SDS011;49099;28.428;-16.488;2023-07-22T05:31:10;5.90;;;1.80;;
63008;SDS011;49099;28.428;-16.488;2023-07-22T05:33:38;6.47;;;1.92;;
63008;SDS011;49099;28.428;-16.488;2023-07-22T05:36:05;6.53;;;1.75;;
63008;SDS011;49099;28.428;-16.488;2023-07-22T05:38:33;7.38;;;2.03;;
63008;SDS011;49099;28.428;-16.488;2023-07-22T05:41:00;5.80;;;1.98;;
63008;SDS011;49099;28.428;-16.488;2023-07-22T05:43:27;6.82;;;2.10;;
63008;SDS011;49099;28.428;-16.488;2023-07-22T05:45:55;5.78;;;1.88;;
63008;SDS011;49099;28.428;-16.488;2023-07-22T05:48:22;4.60;;;2.03;;
63008;SDS011;49099;28.428;-16.488;2023-07-22T05:50:49;7.65;;;2.13;;
63008;SDS011;49099;28.428;-16.488;2023-07-22T05:53:16;7.18;;;1.90;;
63008;SDS011;49099;28.428;-16.488;2023-07-22T05:55:44;8.95;;;2.03;;
63008;SDS011;49099;28.428;-16.488;2023-07-22T05:58:17;6.45;;;1.95;;
63008;SDS011;49099;28.428;-16.488;2023-07-22T06:00:45;6.40;;;1.92;;
63008;SDS011;49099;28.428;-16.488;2023-07-22T06:03:13;4.45;;;1.70;;
63008;SDS011;49099;28.428;-16.488;2023-07-22T06:05:40;6.70;;;2.08;;
63008;SDS011;49099;28.428;-16.488;2023-07-22T06:08:08;4.28;;;2.00;;
63008;SDS011;49099;28.428;-16.488;2023-07-22T06:10:35;6.60;;;2.05;;
63008;SDS011;49099;28.428;-16.488;2023-07-22T06:13:04;7.47;;;2.47;;
63008;SDS011;49099;28.428;-16.488;2023-07-22T06:15:32;11.45;;;2.30;;
63008;SDS011;49099;28.428;-16.488;2023-07-22T06:17:59;6.53;;;2.20;;
63008;SDS011;49099;28.428;-16.488;2023-07-22T06:20:28;4.82;;;1.95;;
63008;SDS011;49099;28.428;-16.488;2023-07-22T06:22:55;12.75;;;2.30;;
63008;SDS011;49099;28.428;-16.488;2023-07-22T06:25:23;7.22;;;2.35;;
63008;SDS011;49099;28.428;-16.488;2023-07-22T06:27:50;7.95;;;2.08;;
63008;SDS011;49099;28.428;-16.488;2023-07-22T06:30:20;6.32;;;1.77;;
63008;SDS011;49099;28.428;-16.488;2023-07-22T06:32:48;8.50;;;2.05;;
63008;SDS011;49099;28.428;-16.488;2023-07-22T06:35:15;5.88;;;1.67;;
63008;SDS011;49099;28.428;-16.488;2023-07-22T06:37:42;4.68;;;1.67;;
63008;SDS011;49099;28.428;-16.488;2023-07-22T06:40:10;6.80;;;1.80;;
63008;SDS011;49099;28.428;-16.488;2023-07-22T06:42:37;8.02;;;1.80;;
63008;SDS011;49099;28.428;-16.488;2023-07-22T06:45:05;5.70;;;2.10;;
63008;SDS011;49099;28.428;-16.488;2023-07-22T06:47:32;7.10;;;2.35;;
63008;SDS011;49099;28.428;-16.488;2023-07-22T06:50:00;4.90;;;2.00;;
63008;SDS011;49099;28.428;-16.488;2023-07-22T06:52:27;6.97;;;2.00;;
63008;SDS011;49099;28.428;-16.488;2023-07-22T06:54:54;13.30;;;2.50;;
63008;SDS011;49099;28.428;-16.488;2023-07-22T06:57:22;5.75;;;2.08;;
63008;SDS011;49099;28.428;-16.488;2023-07-22T06:59:49;9.50;;;2.30;;
63008;SDS011;49099;28.428;-16.488;2023-07-22T07:02:17;9.02;;;2.42;;
63008;SDS011;49099;28.428;-16.488;2023-07-22T07:04:44;9.07;;;2.47;;
63008;SDS011;49099;28.428;-16.488;2023-07-22T07:07:12;8.65;;;2.40;;
63008;SDS011;49099;28.428;-16.488;2023-07-22T07:09:39;8.52;;;2.35;;
63008;SDS011;49099;28.428;-16.488;2023-07-22T07:12:07;8.07;;;2.40;;
63008;SDS011;49099;28.428;-16.488;2023-07-22T07:14:35;9.85;;;2.40;;
63008;SDS011;49099;28.428;-16.488;2023-07-22T07:17:02;7.57;;;2.45;;
63008;SDS011;49099;28.428;-16.488;2023-07-22T07:19:30;9.50;;;2.60;;
63008;SDS011;49099;28.428;-16.488;2023-07-22T07:21:57;7.22;;;2.53;;
63008;SDS011;49099;28.428;-16.488;2023-07-22T07:24:24;8.05;;;2.30;;
63008;SDS011;49099;28.428;-16.488;2023-07-22T07:26:53;6.55;;;2.08;;
63008;SDS011;49099;28.428;-16.488;2023-07-22T07:29:21;7.97;;;3.03;;
63008;SDS011;49099;28.428;-16.488;2023-07-22T07:32:08;8.00;;;2.20;;
63008;SDS011;49099;28.428;-16.488;2023-07-22T07:34:35;9.18;;;2.30;;
63008;SDS011;49099;28.428;-16.488;2023-07-22T07:37:02;8.45;;;2.45;;
63008;SDS011;49099;28.428;-16.488;2023-07-22T07:39:30;9.32;;;2.03;;
63008;SDS011;49099;28.428;-16.488;2023-07-22T07:41:57;10.45;;;2.50;;
63008;SDS011;49099;28.428;-16.488;2023-07-22T07:44:24;11.77;;;2.63;;
63008;SDS011;49099;28.428;-16.488;2023-07-22T07:46:51;15.80;;;3.38;;
63008;SDS011;49099;28.428;-16.488;2023-07-22T07:49:19;16.60;;;3.50;;
63008;SDS011;49099;28.428;-16.488;2023-07-22T07:51:46;17.05;;;3.38;;
63008;SDS011;49099;28.428;-16.488;2023-07-22T07:54:13;13.73;;;3.03;;
63008;SDS011;49099;28.428;-16.488;2023-07-22T07:56:41;15.75;;;3.85;;
63008;SDS011;49099;28.428;-16.488;2023-07-22T07:59:08;20.67;;;4.07;;
63008;SDS011;49099;28.428;-16.488;2023-07-22T08:01:36;21.23;;;3.78;;
63008;SDS011;49099;28.428;-16.488;2023-07-22T08:04:08;15.63;;;3.25;;
63008;SDS011;49099;28.428;-16.488;2023-07-22T08:06:36;15.23;;;3.45;;
63008;SDS011;49099;28.428;-16.488;2023-07-22T08:09:04;17.17;;;3.13;;
63008;SDS011;49099;28.428;-16.488;2023-07-22T08:11:34;13.75;;;3.42;;
63008;SDS011;49099;28.428;-16.488;2023-07-22T08:14:01;19.95;;;4.03;;
63008;SDS011;49099;28.428;-16.488;2023-07-22T08:16:29;17.27;;;3.17;;
63008;SDS011;49099;28.428;-16.488;2023-07-22T08:18:56;17.63;;;3.20;;
63008;SDS011;49099;28.428;-16.488;2023-07-22T08:21:24;16.70;;;2.97;;
63008;SDS011;49099;28.428;-16.488;2023-07-22T08:23:51;12.70;;;3.70;;
63008;SDS011;49099;28.428;-16.488;2023-07-22T08:26:18;12.48;;;2.83;;
63008;SDS011;49099;28.428;-16.488;2023-07-22T08:28:47;14.15;;;2.95;;
63008;SDS011;49099;28.428;-16.488;2023-07-22T08:31:15;10.55;;;3.30;;
63008;SDS011;49099;28.428;-16.488;2023-07-22T08:33:42;12.30;;;3.20;;
63008;SDS011;49099;28.428;-16.488;2023-07-22T08:36:09;10.68;;;3.00;;
63008;SDS011;49099;28.428;-16.488;2023-07-22T08:38:37;12.60;;;2.80;;
63008;SDS011;49099;28.428;-16.488;2023-07-22T08:41:04;11.48;;;2.90;;
63008;SDS011;49099;28.428;-16.488;2023-07-22T08:43:31;11.82;;;2.75;;
63008;SDS011;49099;28.428;-16.488;2023-07-22T08:46:01;11.18;;;2.67;;
63008;SDS011;49099;28.428;-16.488;2023-07-22T08:48:30;10.63;;;2.95;;
63008;SDS011;49099;28.428;-16.488;2023-07-22T08:51:10;10.48;;;2.60;;
63008;SDS011;49099;28.428;-16.488;2023-07-22T08:53:44;8.88;;;2.58;;
63008;SDS011;49099;28.428;-16.488;2023-07-22T08:56:30;8.60;;;2.78;;
63008;SDS011;49099;28.428;-16.488;2023-07-22T08:58:58;13.90;;;2.95;;
63008;SDS011;49099;28.428;-16.488;2023-07-22T09:01:27;14.27;;;3.10;;
63008;SDS011;49099;28.428;-16.488;2023-07-22T09:03:54;10.88;;;2.92;;
63008;SDS011;49099;28.428;-16.488;2023-07-22T09:06:25;17.50;;;2.90;;
63008;SDS011;49099;28.428;-16.488;2023-07-22T09:08:53;7.43;;;2.28;;
63008;SDS011;49099;28.428;-16.488;2023-07-22T09:11:20;12.25;;;2.83;;
63008;SDS011;49099;28.428;-16.488;2023-07-22T09:13:48;14.85;;;3.00;;
63008;SDS011;49099;28.428;-16.488;2023-07-22T09:16:16;14.43;;;3.20;;
63008;SDS011;49099;28.428;-16.488;2023-07-22T09:18:45;11.88;;;2.97;;
63008;SDS011;49099;28.428;-16.488;2023-07-22T09:21:12;13.55;;;3.20;;
63008;SDS011;49099;28.428;-16.488;2023-07-22T09:23:39;16.00;;;3.20;;
63008;SDS011;49099;28.428;-16.488;2023-07-22T09:26:10;12.55;;;2.53;;
63008;SDS011;49099;28.428;-16.488;2023-07-22T09:31:16;12.25;;;2.65;;
63008;SDS011;49099;28.428;-16.488;2023-07-22T09:33:44;11.52;;;3.05;;
63008;SDS011;49099;28.428;-16.488;2023-07-22T09:36:11;16.92;;;3.40;;
63008;SDS011;49099;28.428;-16.488;2023-07-22T09:38:38;19.50;;;3.30;;
63008;SDS011;49099;28.428;-16.488;2023-07-22T09:41:06;16.33;;;3.65;;
63008;SDS011;49099;28.428;-16.488;2023-07-22T09:43:37;16.30;;;3.08;;
63008;SDS011;49099;28.428;-16.488;2023-07-22T09:46:05;12.68;;;3.20;;
63008;SDS011;49099;28.428;-16.488;2023-07-22T09:48:51;13.43;;;3.15;;
63008;SDS011;49099;28.428;-16.488;2023-07-22T09:51:20;16.60;;;3.08;;
63008;SDS011;49099;28.428;-16.488;2023-07-22T09:53:48;12.07;;;2.92;;
63008;SDS011;49099;28.428;-16.488;2023-07-22T09:56:27;12.98;;;3.03;;
63008;SDS011;49099;28.428;-16.488;2023-07-22T09:58:55;18.42;;;3.30;;
63008;SDS011;49099;28.428;-16.488;2023-07-22T10:01:24;18.20;;;3.30;;
63008;SDS011;49099;28.428;-16.488;2023-07-22T10:03:53;12.30;;;2.75;;
63008;SDS011;49099;28.428;-16.488;2023-07-22T10:06:24;15.15;;;2.95;;
63008;SDS011;49099;28.428;-16.488;2023-07-22T10:08:55;10.85;;;2.83;;
63008;SDS011;49099;28.428;-16.488;2023-07-22T10:11:24;15.75;;;3.08;;
63008;SDS011;49099;28.428;-16.488;2023-07-22T10:13:54;15.60;;;2.95;;
63008;SDS011;49099;28.428;-16.488;2023-07-22T10:16:22;17.63;;;3.20;;
63008;SDS011;49099;28.428;-16.488;2023-07-22T10:18:51;12.00;;;2.97;;
63008;SDS011;49099;28.428;-16.488;2023-07-22T10:21:18;11.63;;;2.50;;
63008;SDS011;49099;28.428;-16.488;2023-07-22T10:23:46;16.30;;;2.83;;
63008;SDS011;49099;28.428;-16.488;2023-07-22T10:26:18;13.40;;;3.13;;
63008;SDS011;49099;28.428;-16.488;2023-07-22T10:29:06;17.80;;;3.10;;
63008;SDS011;49099;28.428;-16.488;2023-07-22T10:31:35;10.52;;;2.75;;
63008;SDS011;49099;28.428;-16.488;2023-07-22T10:34:03;12.20;;;3.00;;
63008;SDS011;49099;28.428;-16.488;2023-07-22T10:36:30;17.60;;;3.33;;
63008;SDS011;49099;28.428;-16.488;2023-07-22T10:38:58;13.38;;;3.05;;
63008;SDS011;49099;28.428;-16.488;2023-07-22T10:41:29;16.00;;;2.88;;
63008;SDS011;49099;28.428;-16.488;2023-07-22T10:43:58;12.00;;;2.70;;
63008;SDS011;49099;28.428;-16.488;2023-07-22T10:46:34;13.68;;;2.28;;
63008;SDS011;49099;28.428;-16.488;2023-07-22T10:51:40;14.93;;;3.00;;
63008;SDS011;49099;28.428;-16.488;2023-07-22T10:54:11;10.43;;;2.67;;
63008;SDS011;49099;28.428;-16.488;2023-07-22T10:56:42;7.53;;;2.50;;
63008;SDS011;49099;28.428;-16.488;2023-07-22T10:59:11;12.90;;;2.83;;
63008;SDS011;49099;28.428;-16.488;2023-07-22T11:01:39;11.15;;;2.78;;
63008;SDS011;49099;28.428;-16.488;2023-07-22T11:04:17;15.45;;;3.17;;
63008;SDS011;49099;28.428;-16.488;2023-07-22T11:07:12;13.65;;;2.75;;
63008;SDS011;49099;28.428;-16.488;2023-07-22T11:09:39;11.98;;;2.70;;
63008;SDS011;49099;28.428;-16.488;2023-07-22T11:12:18;15.68;;;2.90;;
63008;SDS011;49099;28.428;-16.488;2023-07-22T11:14:51;13.68;;;2.63;;
63008;SDS011;49099;28.428;-16.488;2023-07-22T11:17:29;14.57;;;2.70;;
63008;SDS011;49099;28.428;-16.488;2023-07-22T11:20:01;14.45;;;2.47;;
63008;SDS011;49099;28.428;-16.488;2023-07-22T11:22:29;13.50;;;2.47;;
63008;SDS011;49099;28.428;-16.488;2023-07-22T11:24:57;14.80;;;2.85;;
63008;SDS011;49099;28.428;-16.488;2023-07-22T11:27:24;15.45;;;2.85;;
63008;SDS011;49099;28.428;-16.488;2023-07-22T11:29:52;14.88;;;2.60;;
63008;SDS011;49099;28.428;-16.488;2023-07-22T11:32:19;14.00;;;2.97;;
63008;SDS011;49099;28.428;-16.488;2023-07-22T11:34:51;10.18;;;2.30;;
63008;SDS011;49099;28.428;-16.488;2023-07-22T11:37:22;17.08;;;3.00;;
63008;SDS011;49099;28.428;-16.488;2023-07-22T11:39:49;16.35;;;2.60;;
63008;SDS011;49099;28.428;-16.488;2023-07-22T11:42:16;13.07;;;2.88;;
63008;SDS011;49099;28.428;-16.488;2023-07-22T11:44:44;16.30;;;2.95;;
63008;SDS011;49099;28.428;-16.488;2023-07-22T11:47:11;15.75;;;3.05;;
63008;SDS011;49099;28.428;-16.488;2023-07-22T11:49:39;12.25;;;2.80;;
63008;SDS011;49099;28.428;-16.488;2023-07-22T11:52:09;13.23;;;3.35;;
63008;SDS011;49099;28.428;-16.488;2023-07-22T11:54:40;12.82;;;2.65;;
63008;SDS011;49099;28.428;-16.488;2023-07-22T11:57:20;11.50;;;2.60;;
63008;SDS011;49099;28.428;-16.488;2023-07-22T12:02:18;12.10;;;2.50;;
63008;SDS011;49099;28.428;-16.488;2023-07-22T12:04:53;10.98;;;2.20;;
63008;SDS011;49099;28.428;-16.488;2023-07-22T12:07:21;14.90;;;3.03;;
63008;SDS011;49099;28.428;-16.488;2023-07-22T12:09:53;12.35;;;2.38;;
63008;SDS011;49099;28.428;-16.488;2023-07-22T12:12:31;13.75;;;2.47;;
63008;SDS011;49099;28.428;-16.488;2023-07-22T12:15:18;14.10;;;2.78;;
63008;SDS011;49099;28.428;-16.488;2023-07-22T12:17:54;11.65;;;2.53;;
63008;SDS011;49099;28.428;-16.488;2023-07-22T12:20:27;13.60;;;3.50;;
63008;SDS011;49099;28.428;-16.488;2023-07-22T12:22:59;13.10;;;3.75;;
63008;SDS011;49099;28.428;-16.488;2023-07-22T12:25:27;12.32;;;3.83;;
63008;SDS011;49099;28.428;-16.488;2023-07-22T12:27:54;12.80;;;3.53;;
63008;SDS011;49099;28.428;-16.488;2023-07-22T12:30:21;17.67;;;3.42;;
63008;SDS011;49099;28.428;-16.488;2023-07-22T12:32:50;14.25;;;3.15;;
63008;SDS011;49099;28.428;-16.488;2023-07-22T12:35:18;12.32;;;3.60;;
63008;SDS011;49099;28.428;-16.488;2023-07-22T12:37:46;21.15;;;3.10;;
63008;SDS011;49099;28.428;-16.488;2023-07-22T12:40:13;13.35;;;3.35;;
63008;SDS011;49099;28.428;-16.488;2023-07-22T12:42:40;15.77;;;3.05;;
63008;SDS011;49099;28.428;-16.488;2023-07-22T12:45:08;13.73;;;3.00;;
63008;SDS011;49099;28.428;-16.488;2023-07-22T12:47:36;16.27;;;3.40;;
63008;SDS011;49099;28.428;-16.488;2023-07-22T12:50:06;15.70;;;2.78;;
63008;SDS011;49099;28.428;-16.488;2023-07-22T12:52:37;14.65;;;2.60;;
63008;SDS011;49099;28.428;-16.488;2023-07-22T12:55:04;11.40;;;2.40;;
63008;SDS011;49099;28.428;-16.488;2023-07-22T12:57:31;13.18;;;3.33;;
63008;SDS011;49099;28.428;-16.488;2023-07-22T12:59:59;11.25;;;2.58;;
63008;SDS011;49099;28.428;-16.488;2023-07-22T13:02:26;13.05;;;3.47;;
63008;SDS011;49099;28.428;-16.488;2023-07-22T13:04:53;13.20;;;2.85;;
63008;SDS011;49099;28.428;-16.488;2023-07-22T13:07:20;14.35;;;2.67;;
63008;SDS011;49099;28.428;-16.488;2023-07-22T13:09:48;12.18;;;2.42;;
63008;SDS011;49099;28.428;-16.488;2023-07-22T13:12:17;15.75;;;2.83;;
63008;SDS011;49099;28.428;-16.488;2023-07-22T13:14:45;12.88;;;3.10;;
63008;SDS011;49099;28.428;-16.488;2023-07-22T13:17:12;16.85;;;3.00;;
63008;SDS011;49099;28.428;-16.488;2023-07-22T13:19:39;16.00;;;3.33;;
63008;SDS011;49099;28.428;-16.488;2023-07-22T13:22:06;16.35;;;3.17;;
63008;SDS011;49099;28.428;-16.488;2023-07-22T13:24:34;12.38;;;2.78;;
63008;SDS011;49099;28.428;-16.488;2023-07-22T13:27:01;14.90;;;2.80;;
63008;SDS011;49099;28.428;-16.488;2023-07-22T13:29:29;13.75;;;2.40;;
63008;SDS011;49099;28.428;-16.488;2023-07-22T13:31:57;13.82;;;2.97;;
63008;SDS011;49099;28.428;-16.488;2023-07-22T13:34:24;15.50;;;2.97;;
63008;SDS011;49099;28.428;-16.488;2023-07-22T13:36:52;14.27;;;3.15;;
63008;SDS011;49099;28.428;-16.488;2023-07-22T13:39:19;16.25;;;3.05;;
63008;SDS011;49099;28.428;-16.488;2023-07-22T13:41:46;13.35;;;2.78;;
63008;SDS011;49099;28.428;-16.488;2023-07-22T13:44:14;12.73;;;2.45;;
63008;SDS011;49099;28.428;-16.488;2023-07-22T13:46:41;8.57;;;2.75;;
63008;SDS011;49099;28.428;-16.488;2023-07-22T13:49:09;9.95;;;2.30;;
63008;SDS011;49099;28.428;-16.488;2023-07-22T13:51:36;9.85;;;2.75;;
63008;SDS011;49099;28.428;-16.488;2023-07-22T13:54:03;11.68;;;2.65;;
63008;SDS011;49099;28.428;-16.488;2023-07-22T13:56:30;13.02;;;2.80;;
63008;SDS011;49099;28.428;-16.488;2023-07-22T13:58:58;9.70;;;2.17;;
63008;SDS011;49099;28.428;-16.488;2023-07-22T14:01:27;11.65;;;2.53;;
63008;SDS011;49099;28.428;-16.488;2023-07-22T14:03:55;12.82;;;2.65;;
63008;SDS011;49099;28.428;-16.488;2023-07-22T14:06:22;9.77;;;2.60;;
63008;SDS011;49099;28.428;-16.488;2023-07-22T14:08:50;12.68;;;2.50;;
63008;SDS011;49099;28.428;-16.488;2023-07-22T14:11:18;10.48;;;2.45;;
63008;SDS011;49099;28.428;-16.488;2023-07-22T14:13:45;11.88;;;2.63;;
63008;SDS011;49099;28.428;-16.488;2023-07-22T14:16:13;9.80;;;2.55;;
63008;SDS011;49099;28.428;-16.488;2023-07-22T14:18:48;10.35;;;2.53;;
63008;SDS011;49099;28.428;-16.488;2023-07-22T14:21:15;13.00;;;2.95;;
63008;SDS011;49099;28.428;-16.488;2023-07-22T14:23:43;9.73;;;3.00;;
63008;SDS011;49099;28.428;-16.488;2023-07-22T14:26:10;9.95;;;2.40;;
63008;SDS011;49099;28.428;-16.488;2023-07-22T14:28:38;8.23;;;2.33;;